Live aus Altenrhein
LIVE
LSZR 211120Z 08005KT 040V110 9999 OVC055 08/05 Q1019 NOSIG RMK G
Zeitraffer heute
2017-11-21 00:00:00
LSZR 202250Z AUTO VRB02KT 9999 OVC080 05/01 Q1019
Zeitraffer gestern
2017-11-20 00:14:56
LSZR 192250Z AUTO VRB02KT 9999 OVC050 05/M01 Q1024
Zeitraffer vor 3 Tagen
2017-11-18 00:14:59
LSZR 172250Z AUTO 10003KT 6000 OVC015 04/02 Q1024